Locust Run, Pennsylvania
Current Conditions -  °F | °C
As of 12:53 AM on Sunday 23 Nov 2014 (Local Time) from KSEG Reporting Station
Clear Clear  
Wind Chill: 38°   Ceiling: Unl
Heat Index: 38°   Visibility: 10mi
Dew Point: 18°   Wind: 3mph
Humidity: 44%   Direction: 230°SW
Pressure: 30.16"   Gusts: NA
Location:  40.6058°N, 77.1728°W
Report Text: KSEG 230553Z AUTO 23003KT 10SM CLR 03/M08 A3016 RMK AO2 SLP215 60000 T00331078 10044 20006 58011
Loading
Personal Weather Stations






























Interactive Weather Map New forecast layout! Learn more

10-Day Weather Forecast

Advertisements
Track Severe Weather on mobile